首页
METAR-TAF:

METAR-TAF

机场 :

倫敦希斯路機場, 英格兰

纬度: 51-29N, 经度: 000-27W, 海拔: 24米

当前天气观测

该预报发布于13分钟前的16:20 UTC
风速14节,风向西转西南
温度 7°C
湿度 81%
气压 999 hPa
能见度10公里或以上

METAR: EGLL 081620Z AUTO 24014KT 9999 NCD 07/04 Q0999 NOSIG

时间: 16:33 (16:33 UTC)

预报

该预报发布于5小时和41分钟前的10:52 UTC
预报有效从08日的 12点(UTC)到 09日的 18点(UTC)
风速15节,风向西转西南,有时为25节阵风
能见度10公里或以上
少量云层高于2500英尺
几率 30% :
短暂存在
从 08日的 12点(UTC)到 08日的 21点(UTC)
风速20节,风向西转西南,有时为35节阵风
能見度: 4000
多云层高于1400英尺
大阵雨
短暂存在
从 08日的 21点(UTC)到 09日的 05点(UTC)
能見度: 6000
多云层高于1400英尺
阵雨
几率 30% :
短暂存在
从 09日的 01点(UTC)到 09日的 03点(UTC)
风速20节,风向西,有时为35节阵风
成为
从 09日的 03点(UTC)到 09日的 06点(UTC)
风速12节,风向西北
成为
从 09日的 06点(UTC)到 09日的 09点(UTC)
风速18节,风向西北,有时为28节阵风
成为
从 09日的 12点(UTC)到 09日的 15点(UTC)
风速10节,风向西转西北

TAF: EGLL 081052Z 0812/0918 24015G25KT 9999 FEW025 PROB30 TEMPO 0812/0821 25020G35KT 4000 +SHRA BKN014 TEMPO 0821/0905 6000 SHRA BKN014 PROB30 TEMPO 0901/0903 26020G35KT BECMG 0903/0906 31012KT BECMG 0906/0909 32018G28KT BECMG 0912/0915 29010KT

超过4000个机场的气象观测和天气预报(METAR&TAF报告)。

可查询的气象台以黄色和红色小点在地图上表示。

将鼠标移到小点上方,可查看气象台名称。

然后点击查看天气观测和预报。

如需切换地图:点击带黑十字的绿色按钮放大地图;点击带横线的绿色按钮缩小地图;或者点击绿色箭头查看邻近地区的地图。


METAR-TAF: